Airfield :
LOGIN :

Register | Disclaimer

   EN    FR    IT 

 










Legend :    VFR   Marginal VFR   IFR   Intensive IFR   Very Intensive IFR
Visi :
Ceiling :
>= 8 km
>= 3000ft
5 to 8 km
1000 to 3000 ft
1500m to 5 km
500 to 1000 ft
800 to 1500m
200 to 500 ft
< 800m
< 200 ft
Symbols :   Thunderstorms  Fog  Heavy snow  Heavy precipitations  Wind > 20 kt
SIGMETs :     Misc.  Thunderstorms  Icing  Turbulence  Mountain Waves  Volcanic Ashes







- Airport Elevation : 313 ft
- IATA code : LEH
- Download approach charts


LFOH - Le Havre Octeville

CURRENT METAR :
  • 210900Z AUTO 29004KT 240V320 9000 BKN004 14/12 Q1018 NOSIG

EXPIRED METARs :
  • 210830Z AUTO 29005KT 8000 OVC004 13/12 Q1018 NOSIG
  • 210800Z AUTO 29005KT 7000 OVC004 13/12 Q1018 NOSIG
  • 210730Z AUTO 28008KT 6000 BKN004 BKN060 13/12 Q1018 BECMG NSC
  • 210700Z AUTO 28008KT 5000 BR SCT004 SCT076 BKN094 12/11 Q1017 NOSIG
  • 210630Z AUTO 28008KT 6000 NSC 12/11 Q1017 NOSIG

TAF AMD TAF LFOH
Valid from the 21 at 07:00 until the 22 at 06:00 UTC


210742Z 2107/2206 28008KT 3000 BR NSC
BECMG 2107/2110 9999 NSW
TEMPO 2107/2112 BKN004
PROB40 2123/2206 3000 BR
ATIS : +33 2 35 54 64 93
No reported NOTAMs for that airfield.



MET'MAP, your aeronautical weather chart ! - Copyright ORBIFLY December 2007 - Disclaimer

ORBIFLY MET'MAP TEAM :

Programming & Development : Alexandra Zaïnal
Concept & Development : Baudouin d'Aumeries
Co-Development & Prog : Marc-Olivier Méhu
Technical & hardware support : Manuel Goepfert

Contact : metmap@orbifly.com




SOURCES & CREDITS :

   NOAA